Time;durP1;ratioP1;P1;durP2;ratioP2;P2;SDS_P1;SDS_P2;PMS_P1;PMS_P2;Temp;Humidity;BMP_temperature;BMP_pressure;BME280_temperature;BME280_humidity;BME280_pressure;Samples;Min_cycle;Max_cycle;Signal;HPM_P1;HPM_P2
2021/01/25 00:01:36;;;;;;;56.77;29.70;;;;;;;-0.32;85.28;98262.50;120992;1150;104385;-82
2021/01/25 00:04:04;;;;;;;56.93;31.57;;;;;;;-0.31;85.15;98257.34;120977;1151;104414;-82
2021/01/25 00:06:32;;;;;;;54.47;29.63;;;;;;;-0.28;84.96;98264.13;120903;1149;104320;-82
2021/01/25 00:08:59;;;;;;;53.83;29.67;;;;;;;-0.26;85.07;98256.41;120679;1150;104371;-82
2021/01/25 00:11:26;;;;;;;54.73;30.63;;;;;;;-0.24;85.13;98249.53;120624;1149;104337;-82
2021/01/25 00:13:53;;;;;;;53.27;28.30;;;;;;;-0.23;84.47;98249.50;120637;1151;104323;-82
2021/01/25 00:16:20;;;;;;;53.80;29.10;;;;;;;-0.22;84.86;98268.27;120647;1150;104335;-82
2021/01/25 00:18:48;;;;;;;47.78;27.67;;;;;;;-0.22;84.52;98248.62;120708;1150;104395;-82
2021/01/25 00:21:17;;;;;;;54.50;29.23;;;;;;;-0.22;84.62;98253.73;120500;1151;104481;-82
2021/01/25 00:23:47;;;;;;;56.77;30.50;;;;;;;-0.22;84.95;98261.42;120668;1151;104348;-81
2021/01/25 00:26:14;;;;;;;56.53;30.20;;;;;;;-0.22;84.62;98256.30;120658;1151;104419;-81
2021/01/25 00:28:43;;;;;;;52.73;28.30;;;;;;;-0.20;84.38;98266.52;120652;1150;104367;-81
2021/01/25 00:31:10;;;;;;;54.42;29.25;;;;;;;-0.20;84.78;98274.20;120676;1150;104506;-81
2021/01/25 00:33:37;;;;;;;50.37;27.83;;;;;;;-0.20;84.54;98271.64;120627;1150;104483;-81
2021/01/25 00:36:04;;;;;;;53.90;29.73;;;;;;;-0.20;84.36;98267.36;120638;1150;104396;-81
2021/01/25 00:38:31;;;;;;;55.20;29.05;;;;;;;-0.20;84.37;98267.36;120576;1150;104488;-81
2021/01/25 00:40:58;;;;;;;52.43;28.80;;;;;;;-0.20;84.38;98267.36;120635;1151;104423;-81
2021/01/25 00:43:25;;;;;;;49.05;27.93;;;;;;;-0.21;84.57;98259.70;120658;1150;104509;-82
2021/01/25 00:45:53;;;;;;;52.80;29.00;;;;;;;-0.22;84.44;98263.98;120652;1149;104375;-82
2021/01/25 00:48:20;;;;;;;53.30;28.40;;;;;;;-0.22;84.28;98253.73;120665;1150;104423;-82
2021/01/25 00:50:48;;;;;;;51.10;28.10;;;;;;;-0.22;84.01;98261.42;120665;1150;103138;-82
2021/01/25 00:53:15;;;;;;;48.37;27.57;;;;;;;-0.24;84.49;98265.74;120548;1151;104358;-82
2021/01/25 00:55:43;;;;;;;45.50;26.17;;;;;;;-0.25;84.50;98264.06;120576;1148;104505;-81
2021/01/25 00:58:10;;;;;;;50.03;26.77;;;;;;;-0.25;84.89;98269.18;120595;1150;104311;-81
2021/01/25 01:00:38;;;;;;;47.73;26.47;;;;;;;-0.24;84.79;98267.46;120657;1150;104411;-81
2021/01/25 01:03:05;;;;;;;50.47;27.57;;;;;;;-0.24;84.67;98270.02;120703;1149;104426;-82
2021/01/25 01:05:32;;;;;;;44.05;25.00;;;;;;;-0.25;83.93;98281.15;120627;1149;104487;-82
2021/01/25 01:08:00;;;;;;;49.30;26.73;;;;;;;-0.26;84.40;98277.73;120627;1150;104524;-82
2021/01/25 01:10:27;;;;;;;49.07;26.87;;;;;;;-0.25;84.50;98271.74;120683;1151;104970;-82
2021/01/25 01:12:54;;;;;;;48.63;24.93;;;;;;;-0.23;84.05;98274.27;120615;1150;104423;-81
2021/01/25 01:15:21;;;;;;;42.20;24.17;;;;;;;-0.23;84.31;98277.67;120547;1151;104484;-81
2021/01/25 01:17:48;;;;;;;42.53;23.83;;;;;;;-0.22;84.45;98279.36;120708;1150;104473;-81
2021/01/25 01:20:16;;;;;;;44.63;25.27;;;;;;;-0.19;83.68;98292.10;120621;1151;104340;-82
2021/01/25 01:22:45;;;;;;;45.23;25.83;;;;;;;-0.18;84.11;98283.57;120592;1150;104285;-82
2021/01/25 01:25:13;;;;;;;39.10;22.57;;;;;;;-0.16;83.86;98284.38;120574;1151;104387;-82
2021/01/25 01:27:40;;;;;;;44.87;24.57;;;;;;;-0.15;83.61;98288.63;120528;1151;104416;-82
2021/01/25 01:30:08;;;;;;;40.77;23.63;;;;;;;-0.10;83.96;98294.49;120605;1149;104458;-82
2021/01/25 01:32:36;;;;;;;40.50;23.85;;;;;;;-0.08;84.14;98289.33;120650;1150;104484;-81
2021/01/25 01:35:05;;;;;;;43.30;23.50;;;;;;;-0.05;84.18;98287.55;120678;1150;104388;-81
2021/01/25 01:37:34;;;;;;;39.77;21.30;;;;;;;-0.03;83.79;98285.79;120680;1151;104388;-81
2021/01/25 01:40:07;;;;;;;35.20;21.67;;;;;;;-0.01;83.76;98288.31;120715;1150;104419;-81
2021/01/25 01:42:35;;;;;;;38.53;22.47;;;;;;;0.02;84.02;98300.25;120682;1151;104322;-81
2021/01/25 01:45:05;;;;;;;42.13;23.70;;;;;;;0.05;83.52;98290.77;120723;1150;104474;-81
2021/01/25 01:47:33;;;;;;;38.55;22.20;;;;;;;0.09;83.41;98288.98;120695;1150;104363;-81
2021/01/25 01:50:01;;;;;;;38.80;22.03;;;;;;;0.11;83.53;98292.35;120698;1150;104363;-81
2021/01/25 01:52:28;;;;;;;36.20;21.70;;;;;;;0.11;83.74;98288.06;120680;1150;104371;-81
2021/01/25 01:54:59;;;;;;;40.30;23.43;;;;;;;0.13;83.79;98295.72;120853;1150;103051;-81
2021/01/25 01:57:28;;;;;;;34.30;21.17;;;;;;;0.15;83.49;98288.84;121061;1150;104308;-81
2021/01/25 01:59:56;;;;;;;36.87;22.83;;;;;;;0.17;83.59;98287.92;120837;1150;104448;-82
2021/01/25 02:02:23;;;;;;;34.67;20.53;;;;;;;0.18;83.43;98278.52;120629;1150;104477;-81
2021/01/25 02:04:50;;;;;;;37.10;20.87;;;;;;;0.19;83.25;98283.63;120631;1151;104477;-82
2021/01/25 02:07:18;;;;;;;38.53;21.30;;;;;;;0.22;82.98;98281.00;120573;1151;104458;-82
2021/01/25 02:09:47;;;;;;;37.73;21.15;;;;;;;0.26;82.99;98279.20;120698;1149;102555;-82
2021/01/25 02:12:18;;;;;;;35.03;20.77;;;;;;;0.26;82.83;98292.02;120654;1151;104545;-82
2021/01/25 02:14:46;;;;;;;35.53;22.13;;;;;;;0.24;83.18;98293.78;120637;1150;104394;-82
2021/01/25 02:17:15;;;;;;;36.33;21.53;;;;;;;0.26;83.05;98297.16;120634;1149;104348;-81
2021/01/25 02:20:01;;;;;;;32.80;19.63;;;;;;;0.27;83.24;98289.42;120572;1151;104316;-81
2021/01/25 02:22:38;;;;;;;34.20;20.77;;;;;;;0.29;83.01;98303.05;120618;1150;104366;-81
2021/01/25 02:25:11;;;;;;;34.05;20.50;;;;;;;0.31;82.72;98300.45;120656;1149;104310;-82
2021/01/25 02:27:42;;;;;;;29.30;17.27;;;;;;;0.34;82.99;98295.25;120644;1151;104496;-82
2021/01/25 02:30:15;;;;;;;36.15;21.05;;;;;;;0.38;83.13;98298.61;120604;1150;104313;-81
2021/01/25 02:32:44;;;;;;;33.50;19.30;;;;;;;0.40;82.91;98300.27;120701;1150;104515;-82
2021/01/25 02:35:15;;;;;;;41.37;22.60;;;;;;;0.40;83.03;98299.42;120648;1150;104423;-82
2021/01/25 02:37:46;;;;;;;35.73;21.00;;;;;;;0.39;82.94;98296.02;120592;1151;104388;-82
2021/01/25 02:40:15;;;;;;;34.03;19.73;;;;;;;0.39;83.08;98303.70;120602;1151;101915;-81
2021/01/25 02:42:43;;;;;;;35.97;21.50;;;;;;;0.39;82.74;98308.83;120702;1150;104429;-81
2021/01/25 02:45:11;;;;;;;37.57;21.13;;;;;;;0.40;82.54;98299.42;120663;1151;104404;-81
2021/01/25 02:47:39;;;;;;;37.83;21.93;;;;;;;0.42;83.09;98300.22;120662;1149;104350;-81
2021/01/25 02:50:07;;;;;;;34.10;19.87;;;;;;;0.43;82.76;98299.34;120638;1150;104978;-81
2021/01/25 02:52:34;;;;;;;36.87;21.67;;;;;;;0.44;82.49;98307.00;120694;1150;104327;-81
2021/01/25 02:55:02;;;;;;;33.90;20.62;;;;;;;0.45;82.53;98303.55;120631;1150;104039;-81
2021/01/25 02:57:32;;;;;;;38.97;22.03;;;;;;;0.49;83.00;98305.17;120546;1151;104426;-81
2021/01/25 03:00:00;;;;;;;37.27;21.47;;;;;;;0.51;82.77;98302.56;120664;1151;104182;-81
2021/01/25 03:02:28;;;;;;;37.63;21.33;;;;;;;0.53;82.80;98304.21;120536;1151;103073;-81
2021/01/25 03:04:59;;;;;;;32.77;20.00;;;;;;;0.55;82.46;98304.20;120647;1151;104467;-81
2021/01/25 03:07:27;;;;;;;32.57;20.00;;;;;;;0.53;82.63;98300.80;120523;1151;103248;-81
2021/01/25 03:09:59;;;;;;;33.37;20.30;;;;;;;0.52;82.50;98296.55;120674;1151;104387;-82
2021/01/25 03:12:27;;;;;;;36.67;21.43;;;;;;;0.54;82.79;98297.39;120599;1150;102333;-80
2021/01/25 03:14:55;;;;;;;35.63;20.90;;;;;;;0.59;82.80;98296.39;120609;1151;102489;-82
2021/01/25 03:17:23;;;;;;;36.03;21.40;;;;;;;0.62;82.58;98295.48;120650;1150;104413;-82
2021/01/25 03:19:50;;;;;;;33.63;20.07;;;;;;;0.61;82.53;98301.48;120682;1150;104479;-82
2021/01/25 03:22:17;;;;;;;30.27;18.40;;;;;;;0.61;82.00;98301.48;120625;1151;104415;-82
2021/01/25 03:24:44;;;;;;;32.33;18.90;;;;;;;0.63;82.34;98301.45;120637;1151;104444;-82
2021/01/25 03:27:11;;;;;;;33.33;19.93;;;;;;;0.63;82.13;98307.42;120623;1150;104373;-81
2021/01/25 03:29:38;;;;;;;30.97;19.13;;;;;;;0.64;82.30;98303.98;120646;1151;104420;-82
2021/01/25 03:32:05;;;;;;;34.53;19.73;;;;;;;0.63;81.64;98302.30;120668;1149;104320;-81
2021/01/25 03:34:33;;;;;;;33.03;20.50;;;;;;;0.65;82.03;98309.95;120620;1150;104256;-81
2021/01/25 03:37:00;;;;;;;31.63;19.83;;;;;;;0.70;82.53;98315.81;120542;1150;104387;-81
2021/01/25 03:39:28;;;;;;;33.77;20.37;;;;;;;0.72;82.19;98314.05;120663;1150;104445;-81
2021/01/25 03:41:55;;;;;;;30.02;18.30;;;;;;;0.73;81.83;98302.94;120548;1151;104928;-80
2021/01/25 03:44:22;;;;;;;35.80;20.23;;;;;;;0.74;81.76;98307.19;120746;1150;103025;-81
2021/01/25 03:46:49;;;;;;;32.63;18.57;;;;;;;0.73;81.71;98308.91;121006;1150;103199;-81
2021/01/25 03:49:16;;;;;;;32.97;18.90;;;;;;;0.73;81.82;98306.34;121017;1149;104348;-81
2021/01/25 03:51:43;;;;;;;33.57;19.97;;;;;;;0.74;81.82;98307.19;120997;1151;104481;-81
2021/01/25 03:54:12;;;;;;;30.45;18.42;;;;;;;0.76;81.86;98311.39;120749;1150;104333;-81
2021/01/25 03:56:40;;;;;;;31.27;19.53;;;;;;;0.76;81.86;98311.39;120640;1150;104330;-81
2021/01/25 03:59:08;;;;;;;32.83;20.37;;;;;;;0.78;81.70;98317.33;120721;1150;104439;-82
2021/01/25 04:01:35;;;;;;;32.87;19.73;;;;;;;0.81;81.72;98319.81;120636;1150;102596;-82
2021/01/25 04:04:02;;;;;;;34.43;19.60;;;;;;;0.83;81.67;98324.91;120665;1151;104251;-81
2021/01/25 04:06:31;;;;;;;31.53;19.27;;;;;;;0.85;81.94;98325.72;120673;1150;104484;-81
2021/01/25 04:08:58;;;;;;;33.40;19.57;;;;;;;0.86;81.82;98329.97;120672;1150;104452;-81
2021/01/25 04:11:25;;;;;;;32.00;20.23;;;;;;;0.92;81.58;98336.70;120642;1151;104298;-81
2021/01/25 04:13:52;;;;;;;34.10;20.50;;;;;;;0.91;81.60;98343.55;120668;1150;104514;-81
2021/01/25 04:16:19;;;;;;;32.37;20.20;;;;;;;0.96;81.52;98340.88;120573;1151;104434;-82
2021/01/25 04:18:47;;;;;;;32.75;20.80;;;;;;;0.98;81.45;98339.11;120585;1151;105164;-82
2021/01/25 04:21:14;;;;;;;32.83;19.57;;;;;;;0.99;81.62;98349.34;120535;1151;104539;-82
2021/01/25 04:23:41;;;;;;;34.07;20.13;;;;;;;0.97;81.38;98345.13;120707;1150;104345;-81
2021/01/25 04:26:10;;;;;;;31.77;19.43;;;;;;;0.97;81.12;98347.69;120654;1150;104356;-81
2021/01/25 04:28:37;;;;;;;34.67;19.57;;;;;;;0.96;81.47;98346.85;120664;1149;104314;-81
2021/01/25 04:31:04;;;;;;;33.33;20.32;;;;;;;0.97;81.41;98356.23;120619;1150;104463;-81
2021/01/25 04:33:31;;;;;;;38.47;21.10;;;;;;;0.99;81.60;98351.91;120555;1151;104288;-81
2021/01/25 04:35:59;;;;;;;35.87;20.10;;;;;;;0.96;81.12;98349.41;120638;1150;104333;-81
2021/01/25 04:38:26;;;;;;;29.40;18.70;;;;;;;0.98;81.29;98349.38;120738;1149;104806;-80
2021/01/25 04:40:53;;;;;;;32.37;19.63;;;;;;;0.96;81.13;98344.28;120551;1151;104407;-80
2021/01/25 04:43:20;;;;;;;30.90;19.23;;;;;;;0.93;81.32;98343.52;120688;1151;104462;-80
2021/01/25 04:45:47;;;;;;;34.50;20.07;;;;;;;0.89;81.28;98341.00;120688;1148;104748;-80
2021/01/25 04:48:15;;;;;;;30.25;19.10;;;;;;;0.90;81.25;98347.00;120540;1148;104371;-81
2021/01/25 04:50:43;;;;;;;33.77;19.57;;;;;;;0.90;81.20;98345.28;120721;1148;104403;-81
2021/01/25 04:53:11;;;;;;;30.77;19.43;;;;;;;0.87;81.31;98339.35;120672;1148;104474;-81
2021/01/25 04:55:39;;;;;;;31.00;19.17;;;;;;;0.87;81.41;98339.35;120654;1148;104401;-81
2021/01/25 04:58:06;;;;;;;33.23;20.77;;;;;;;0.89;81.52;98345.29;120701;1148;104412;-81
2021/01/25 05:00:33;;;;;;;31.67;20.13;;;;;;;0.92;81.61;98345.24;120634;1148;103092;-82
2021/01/25 05:03:00;;;;;;;36.05;20.85;;;;;;;0.91;81.51;98343.55;120690;1148;104444;-80
2021/01/25 05:05:28;;;;;;;33.73;19.52;;;;;;;0.91;81.26;98338.42;120662;1150;104438;-80
2021/01/25 05:07:55;;;;;;;34.03;20.40;;;;;;;0.92;81.31;98350.38;120717;1150;104350;-81
2021/01/25 05:10:22;;;;;;;36.23;20.80;;;;;;;0.95;81.66;98350.30;120716;1148;104325;-81
2021/01/25 05:12:51;;;;;;;36.50;21.93;;;;;;;0.97;81.67;98343.40;120693;1148;104383;-82
2021/01/25 05:15:29;;;;;;;37.73;21.07;;;;;;;1.00;81.34;98348.45;120678;1148;104435;-81
2021/01/25 05:18:01;;;;;;;37.23;21.50;;;;;;;0.99;81.23;98351.06;120613;1148;104321;-81
2021/01/25 05:20:31;;;;;;;32.45;19.75;;;;;;;1.00;81.11;98348.45;120615;1148;104310;-81
2021/01/25 05:23:12;;;;;;;35.17;21.10;;;;;;;1.04;81.54;98347.50;120647;1150;104411;-81
2021/01/25 05:25:41;;;;;;;32.23;19.50;;;;;;;1.08;81.67;98350.86;120661;1148;103016;-81
2021/01/25 05:28:19;;;;;;;33.70;20.33;;;;;;;1.14;81.43;98355.83;120638;1148;104364;-81
2021/01/25 05:30:47;;;;;;;37.00;21.20;;;;;;;1.16;81.37;98356.63;120645;1148;102450;-82
2021/01/25 05:33:26;;;;;;;34.43;20.00;;;;;;;1.19;81.08;98357.39;120617;1148;104257;-81
2021/01/25 05:35:55;;;;;;;34.30;20.13;;;;;;;1.20;80.92;98363.37;120691;1148;104445;-81
2021/01/25 05:38:22;;;;;;;33.13;19.93;;;;;;;1.20;81.11;98358.23;120679;1148;104439;-81
2021/01/25 05:40:56;;;;;;;36.47;21.27;;;;;;;1.23;81.19;98362.45;120817;1148;103126;-80
2021/01/25 05:43:32;;;;;;;34.67;20.10;;;;;;;1.20;80.70;98368.51;121037;1147;104451;-80
2021/01/25 05:46:10;;;;;;;33.10;19.30;;;;;;;1.17;80.71;98372.00;120944;1148;104449;-80
2021/01/25 05:48:37;;;;;;;30.47;20.30;;;;;;;1.17;80.88;98364.30;120612;1151;104346;-81
2021/01/25 05:51:16;;;;;;;36.37;21.80;;;;;;;1.17;80.80;98366.86;120660;1148;104393;-81
2021/01/25 05:53:46;;;;;;;32.67;19.83;;;;;;;1.17;80.73;98374.56;120709;1150;105509;-81
2021/01/25 05:56:15;;;;;;;31.63;19.00;;;;;;;1.16;80.61;98361.77;120675;1150;104208;-81
2021/01/25 05:58:43;;;;;;;31.30;19.60;;;;;;;1.14;80.77;98363.53;120742;1148;104188;-82
2021/01/25 06:01:10;;;;;;;34.77;20.23;;;;;;;1.12;80.85;98361.00;120632;1151;104413;-81
2021/01/25 06:03:37;;;;;;;36.35;20.30;;;;;;;1.12;80.47;98367.87;120685;1150;104409;-81
2021/01/25 06:06:21;;;;;;;36.75;20.77;;;;;;;1.12;80.64;98362.73;120658;1148;104432;-81
2021/01/25 06:08:48;;;;;;;34.60;21.47;;;;;;;1.11;81.10;98364.45;120629;1148;104431;-82
2021/01/25 06:11:44;;;;;;;36.20;20.27;;;;;;;1.16;80.82;98364.34;120691;1148;104297;-82
2021/01/25 06:14:22;;;;;;;33.80;20.20;;;;;;;1.17;80.74;98361.73;120679;1148;104300;-81
2021/01/25 06:16:51;;;;;;;35.37;20.70;;;;;;;1.19;80.80;98364.25;120755;1148;104321;-81
2021/01/25 06:19:22;;;;;;;33.00;19.97;;;;;;;1.22;81.11;98371.88;120711;1148;101919;-81
2021/01/25 06:21:50;;;;;;;33.43;20.37;;;;;;;1.25;80.89;98368.39;120648;1148;104369;-81
2021/01/25 06:24:20;;;;;;;33.40;20.35;;;;;;;1.28;81.06;98371.75;120709;1148;104379;-81
2021/01/25 06:26:49;;;;;;;33.20;20.30;;;;;;;1.33;80.75;98367.33;120734;1150;104308;-81
2021/01/25 06:29:17;;;;;;;35.00;21.00;;;;;;;1.35;80.71;98364.72;120641;1150;104400;-81
2021/01/25 06:31:49;;;;;;;31.53;20.03;;;;;;;1.38;80.63;98362.08;120649;1150;104341;-81
2021/01/25 06:34:18;;;;;;;34.77;20.73;;;;;;;1.40;80.60;98365.44;120553;1148;104589;-80
2021/01/25 06:36:48;;;;;;;34.30;20.67;;;;;;;1.45;80.83;98368.77;120625;1147;104366;-81
2021/01/25 06:39:23;;;;;;;33.37;20.17;;;;;;;1.45;80.49;98367.03;120651;1148;104412;-81
2021/01/25 06:42:03;;;;;;;31.97;20.03;;;;;;;1.46;80.56;98367.88;120599;1148;104353;-82
2021/01/25 06:44:32;;;;;;;32.47;19.37;;;;;;;1.44;80.51;98372.21;120690;1148;104409;-82
2021/01/25 06:47:04;;;;;;;32.63;19.50;;;;;;;1.45;80.38;98371.33;120621;1148;104400;-81
2021/01/25 06:49:33;;;;;;;40.93;24.63;;;;;;;1.47;80.43;98379.84;120671;1148;104288;-81
2021/01/25 06:52:01;;;;;;;31.77;19.90;;;;;;;1.48;80.62;98382.36;120726;1148;104418;-82
2021/01/25 06:54:28;;;;;;;33.73;20.53;;;;;;;1.51;80.59;98381.44;120678;1148;104925;-82
2021/01/25 06:56:59;;;;;;;31.50;19.73;;;;;;;1.53;80.39;98379.67;120721;1148;104402;-81
2021/01/25 06:59:30;;;;;;;30.80;18.90;;;;;;;1.52;80.01;98383.13;120667;1150;104167;-82
2021/01/25 07:01:58;;;;;;;32.77;20.00;;;;;;;1.52;80.01;98388.27;120683;1149;104402;-81
2021/01/25 07:04:30;;;;;;;33.83;20.37;;;;;;;1.53;80.12;98395.09;120706;1148;104195;-81
2021/01/25 07:06:58;;;;;;;33.80;20.13;;;;;;;1.55;79.96;98407.89;120750;1150;104316;-82
2021/01/25 07:09:33;;;;;;;32.13;19.30;;;;;;;1.52;79.94;98403.67;120628;1149;104500;-82
2021/01/25 07:12:04;;;;;;;32.93;20.60;;;;;;;1.51;79.99;98396.85;120596;1148;103836;-82
2021/01/25 07:14:33;;;;;;;31.77;19.83;;;;;;;1.53;80.08;98395.09;120655;1148;104329;-81
2021/01/25 07:17:00;;;;;;;34.70;19.70;;;;;;;1.53;80.08;98399.38;120705;1148;104531;-81
2021/01/25 07:19:29;;;;;;;34.63;20.60;;;;;;;1.57;80.15;98390.70;120731;1148;104358;-81
2021/01/25 07:21:56;;;;;;;35.63;21.40;;;;;;;1.60;80.13;98399.17;120646;1151;104399;-81
2021/01/25 07:24:27;;;;;;;34.60;20.40;;;;;;;1.61;80.14;98397.45;120608;1148;104423;-81
2021/01/25 07:26:59;;;;;;;37.63;21.47;;;;;;;1.62;80.30;98388.88;120705;1148;104288;-81
2021/01/25 07:29:28;;;;;;;38.20;21.67;;;;;;;1.63;79.92;98393.98;120687;1148;104417;-82
2021/01/25 07:31:56;;;;;;;40.23;22.73;;;;;;;1.62;80.03;98402.58;120691;1148;103458;-81
2021/01/25 07:34:28;;;;;;;35.73;21.07;;;;;;;1.63;80.06;98396.55;120821;1150;104521;-81
2021/01/25 07:36:55;;;;;;;37.00;22.47;;;;;;;1.63;79.86;98398.28;120989;1148;104440;-81
2021/01/25 07:39:23;;;;;;;38.87;23.53;;;;;;;1.64;80.15;98397.39;120948;1148;104223;-81
2021/01/25 07:41:50;;;;;;;39.07;23.10;;;;;;;1.69;80.06;98398.11;120622;1148;104336;-82
2021/01/25 07:44:17;;;;;;;42.53;25.17;;;;;;;1.72;80.20;98400.59;120687;1148;104423;-83
2021/01/25 07:46:47;;;;;;;43.23;24.90;;;;;;;1.73;80.00;98392.00;120602;1150;104440;-81
2021/01/25 07:49:25;;;;;;;43.70;24.60;;;;;;;1.70;79.88;98387.78;120633;1150;104472;-81
2021/01/25 07:51:53;;;;;;;38.67;23.77;;;;;;;1.71;80.13;98389.47;120552;1151;104413;-81
2021/01/25 07:54:20;;;;;;;39.50;23.10;;;;;;;1.72;79.70;98388.59;120659;1148;104324;-81
2021/01/25 07:56:47;;;;;;;37.20;22.83;;;;;;;1.74;79.79;98391.95;120638;1150;104898;-81
2021/01/25 07:59:17;;;;;;;39.55;23.50;;;;;;;1.76;79.95;98400.47;120613;1148;104344;-81
2021/01/25 08:01:57;;;;;;;36.13;21.67;;;;;;;1.77;79.77;98409.02;120628;1150;104419;-81
2021/01/25 08:04:33;;;;;;;40.43;23.57;;;;;;;1.76;79.80;98402.19;120648;1148;104349;-81
2021/01/25 08:07:01;;;;;;;37.97;22.40;;;;;;;1.76;79.86;98405.61;120643;1148;104359;-80
2021/01/25 08:09:29;;;;;;;38.33;22.67;;;;;;;1.78;79.86;98408.98;120684;1148;104453;-81
2021/01/25 08:11:59;;;;;;;36.73;22.03;;;;;;;1.79;79.66;98402.95;120673;1151;104636;-81
2021/01/25 08:14:46;;;;;;;37.27;20.93;;;;;;;1.80;79.79;98414.95;120609;1148;104429;-81
2021/01/25 08:17:20;;;;;;;36.93;21.27;;;;;;;1.78;79.62;98411.55;120697;1148;104409;-82
2021/01/25 08:19:59;;;;;;;39.57;21.63;;;;;;;1.78;79.67;98411.55;120682;1148;104295;-82
2021/01/25 08:22:40;;;;;;;33.70;21.47;;;;;;;1.77;79.36;98421.88;120679;1151;104417;-82
2021/01/25 08:25:07;;;;;;;31.93;19.23;;;;;;;1.74;79.71;98412.52;120734;1148;103162;-81
2021/01/25 08:27:36;;;;;;;35.95;20.80;;;;;;;1.76;79.42;98418.45;120628;1148;105074;-82
2021/01/25 08:30:08;;;;;;;32.33;19.57;;;;;;;1.75;79.15;98410.79;120658;1148;104426;-82
2021/01/25 08:32:42;;;;;;;35.00;19.43;;;;;;;1.76;79.37;98410.75;120629;1148;104416;-82
2021/01/25 08:35:11;;;;;;;31.00;18.77;;;;;;;1.72;79.47;98409.14;120674;1148;102459;-81
2021/01/25 08:37:38;;;;;;;33.30;19.77;;;;;;;1.72;79.33;98414.28;120607;1149;104416;-81
2021/01/25 08:40:14;;;;;;;31.77;18.87;;;;;;;1.74;79.43;98414.24;120662;1148;104476;-82
2021/01/25 08:42:41;;;;;;;32.53;19.20;;;;;;;1.75;79.37;98410.79;120676;1148;104367;-82
2021/01/25 08:45:21;;;;;;;31.77;18.13;;;;;;;1.76;79.28;98418.45;120659;1151;104400;-81
2021/01/25 08:47:48;;;;;;;32.00;19.13;;;;;;;1.80;79.37;98404.67;120668;1148;104320;-81
2021/01/25 08:50:36;;;;;;;28.17;16.57;;;;;;;1.83;78.78;98408.87;120699;1148;104411;-81
2021/01/25 08:53:09;;;;;;;29.07;17.15;;;;;;;1.80;78.77;98414.11;120590;1148;104458;-82
2021/01/25 08:55:41;;;;;;;29.23;16.87;;;;;;;1.77;78.87;98417.58;120623;1148;104430;-82
2021/01/25 08:58:31;;;;;;;24.47;16.13;;;;;;;1.76;78.63;98415.89;120685;1150;104342;-82
2021/01/25 09:00:58;;;;;;;26.53;15.73;;;;;;;1.76;78.76;98420.19;120680;1150;104355;-81
2021/01/25 09:03:26;;;;;;;27.03;16.37;;;;;;;1.74;78.69;98416.81;120669;1150;103163;-81
2021/01/25 09:05:54;;;;;;;27.77;16.40;;;;;;;1.75;78.94;98416.77;120603;1151;104478;-81
2021/01/25 09:08:26;;;;;;;26.23;15.53;;;;;;;1.72;78.81;98411.72;120682;1150;104400;-81
2021/01/25 09:10:53;;;;;;;25.87;14.83;;;;;;;1.70;78.58;98418.63;120588;1151;104422;-81
2021/01/25 09:13:20;;;;;;;25.82;15.75;;;;;;;1.67;78.89;98413.57;120689;1150;104362;-81
2021/01/25 09:15:47;;;;;;;24.23;15.03;;;;;;;1.67;78.68;98421.28;120627;1148;104443;-81
2021/01/25 09:18:14;;;;;;;24.30;15.28;;;;;;;1.67;78.69;98423.84;120601;1150;104418;-81
2021/01/25 09:20:42;;;;;;;25.13;15.50;;;;;;;1.67;78.59;98423.84;120563;1148;104384;-80
2021/01/25 09:23:09;;;;;;;28.93;15.83;;;;;;;1.69;78.55;98421.23;120690;1150;104372;-80
2021/01/25 09:25:36;;;;;;;29.57;16.40;;;;;;;1.68;78.76;98420.39;120707;1148;104323;-81
2021/01/25 09:28:04;;;;;;;26.60;16.33;;;;;;;1.72;78.85;98427.14;120724;1150;103099;-81
2021/01/25 09:30:31;;;;;;;24.60;15.87;;;;;;;1.74;78.68;98429.66;120625;1148;104187;-81
2021/01/25 09:32:58;;;;;;;26.40;16.60;;;;;;;1.75;78.63;98429.63;120676;1148;105548;-80
2021/01/25 09:35:26;;;;;;;25.92;15.90;;;;;;;1.75;78.74;98432.19;120618;1148;104323;-82
2021/01/25 09:37:55;;;;;;;28.10;17.37;;;;;;;1.74;78.40;98433.08;120622;1148;104287;-81
2021/01/25 09:40:22;;;;;;;25.07;15.63;;;;;;;1.77;78.50;98432.99;120617;1150;104487;-81
2021/01/25 09:42:49;;;;;;;25.33;15.90;;;;;;;1.78;78.81;98431.27;120587;1151;104455;-81
2021/01/25 09:45:19;;;;;;;26.10;16.48;;;;;;;1.78;78.45;98429.54;120570;1148;104375;-81
2021/01/25 09:47:47;;;;;;;28.03;16.30;;;;;;;1.79;78.17;98432.95;120695;1148;104309;-81
2021/01/25 09:50:18;;;;;;;24.07;15.67;;;;;;;1.78;78.50;98426.13;120791;1150;104547;-81
2021/01/25 09:52:47;;;;;;;25.97;16.17;;;;;;;1.76;78.17;98422.75;120642;1148;104200;-84
2021/01/25 09:55:16;;;;;;;28.97;17.23;;;;;;;1.73;78.22;98420.27;120640;1150;104326;-82
2021/01/25 09:57:43;;;;;;;28.53;16.90;;;;;;;1.74;78.28;98425.37;120641;1149;104452;-82
2021/01/25 10:00:12;;;;;;;28.23;17.37;;;;;;;1.74;78.31;98430.50;120619;1151;103238;-81
2021/01/25 10:02:40;;;;;;;27.70;16.70;;;;;;;1.77;78.63;98425.28;120644;1148;104419;-81
2021/01/25 10:05:09;;;;;;;24.07;15.87;;;;;;;1.78;78.39;98429.54;120604;1150;104413;-81
2021/01/25 10:07:37;;;;;;;27.00;16.57;;;;;;;1.80;78.58;98432.94;120685;1148;104426;-82
2021/01/25 10:10:09;;;;;;;27.17;16.67;;;;;;;1.83;78.38;98437.16;120550;1148;104806;-81
2021/01/25 10:12:38;;;;;;;23.70;15.67;;;;;;;1.85;78.18;98426.83;120687;1148;104412;-81
2021/01/25 10:15:08;;;;;;;24.33;15.87;;;;;;;1.83;77.90;98423.45;120548;1148;105033;-82
2021/01/25 10:17:36;;;;;;;28.07;16.90;;;;;;;1.81;78.29;98419.20;120533;1148;104329;-82
2021/01/25 10:20:05;;;;;;;24.27;16.20;;;;;;;1.81;78.07;98416.63;120619;1148;104420;-81
2021/01/25 10:22:32;;;;;;;28.70;17.37;;;;;;;1.81;77.96;98402.94;120686;1151;104276;-81
2021/01/25 10:24:59;;;;;;;27.07;15.60;;;;;;;1.82;78.08;98407.20;120681;1148;104455;-81
2021/01/25 10:27:26;;;;;;;24.90;15.40;;;;;;;1.84;78.15;98407.16;120607;1148;104620;-81
2021/01/25 10:29:54;;;;;;;26.03;16.13;;;;;;;1.80;77.73;98408.97;120547;1151;104330;-81
2021/01/25 10:32:21;;;;;;;26.00;16.67;;;;;;;1.78;77.82;98418.41;120641;1148;104368;-81
2021/01/25 10:34:49;;;;;;;26.00;16.47;;;;;;;1.76;77.84;98408.17;120613;1150;103272;-82
2021/01/25 10:37:16;;;;;;;25.43;16.07;;;;;;;1.77;77.62;98414.16;120652;1150;104337;-80
2021/01/25 10:39:43;;;;;;;24.15;15.30;;;;;;;1.75;77.74;98414.20;120669;1148;104451;-81
2021/01/25 10:42:10;;;;;;;30.87;18.77;;;;;;;1.76;78.03;98412.47;120645;1148;104409;-81
2021/01/25 10:44:37;;;;;;;29.67;17.60;;;;;;;1.78;78.16;98410.70;120710;1148;104318;-82
2021/01/25 10:47:04;;;;;;;26.80;16.65;;;;;;;1.79;77.91;98402.95;120665;1148;105055;-81
2021/01/25 10:49:32;;;;;;;26.83;15.83;;;;;;;1.77;77.51;98409.86;120691;1150;104436;-81
2021/01/25 10:51:59;;;;;;;24.23;16.33;;;;;;;1.75;77.90;98403.92;120623;1148;104570;-81
2021/01/25 10:54:26;;;;;;;26.57;16.50;;;;;;;1.77;77.62;98407.30;120692;1148;104319;-81
2021/01/25 10:56:53;;;;;;;25.53;15.80;;;;;;;1.78;77.80;98406.41;120678;1150;104969;-81
2021/01/25 10:59:20;;;;;;;28.67;15.60;;;;;;;1.77;77.90;98404.72;120675;1150;104445;-82
2021/01/25 11:01:47;;;;;;;28.77;16.87;;;;;;;1.77;77.46;98409.86;120653;1151;104516;-82
2021/01/25 11:04:15;;;;;;;28.67;17.47;;;;;;;1.74;77.70;98409.10;120660;1148;104329;-82
2021/01/25 11:06:42;;;;;;;24.90;15.77;;;;;;;1.72;77.64;98410.88;120789;1149;104434;-81
2021/01/25 11:09:09;;;;;;;26.87;16.97;;;;;;;1.71;77.73;98409.19;120599;1150;105544;-81
2021/01/25 11:11:36;;;;;;;31.67;17.30;;;;;;;1.74;78.02;98411.67;120634;1148;104320;-81
2021/01/25 11:14:03;;;;;;;28.07;16.73;;;;;;;1.72;77.70;98409.14;120624;1148;104457;-81
2021/01/25 11:16:32;;;;;;;27.80;17.20;;;;;;;1.70;77.41;98403.20;120716;1148;104355;-81